sensor_id;sensor_type;location;lat;lon;timestamp;P1;durP1;ratioP1;P2;durP2;ratioP2
739;SDS011;354;42.694;23.336;2023-09-18T00:01:47;32.70;;;29.47;;
739;SDS011;354;42.694;23.336;2023-09-18T00:04:12;31.97;;;28.77;;
739;SDS011;354;42.694;23.336;2023-09-18T00:06:38;31.87;;;28.50;;
739;SDS011;354;42.694;23.336;2023-09-18T00:09:03;30.83;;;27.63;;
739;SDS011;354;42.694;23.336;2023-09-18T00:11:28;32.30;;;28.57;;
739;SDS011;354;42.694;23.336;2023-09-18T00:13:54;31.93;;;28.67;;
739;SDS011;354;42.694;23.336;2023-09-18T00:16:19;32.97;;;29.60;;
739;SDS011;354;42.694;23.336;2023-09-18T00:18:44;32.87;;;29.53;;
739;SDS011;354;42.694;23.336;2023-09-18T00:21:12;33.23;;;29.83;;
739;SDS011;354;42.694;23.336;2023-09-18T00:23:38;31.43;;;28.10;;
739;SDS011;354;42.694;23.336;2023-09-18T00:26:03;31.87;;;28.63;;
739;SDS011;354;42.694;23.336;2023-09-18T00:28:29;32.30;;;29.10;;
739;SDS011;354;42.694;23.336;2023-09-18T00:30:54;31.27;;;28.27;;
739;SDS011;354;42.694;23.336;2023-09-18T00:33:20;30.90;;;27.93;;
739;SDS011;354;42.694;23.336;2023-09-18T00:35:46;31.17;;;28.20;;
739;SDS011;354;42.694;23.336;2023-09-18T00:38:16;30.97;;;27.97;;
739;SDS011;354;42.694;23.336;2023-09-18T00:40:41;32.17;;;29.03;;
739;SDS011;354;42.694;23.336;2023-09-18T00:43:07;33.40;;;30.07;;
739;SDS011;354;42.694;23.336;2023-09-18T00:45:34;33.07;;;29.93;;
739;SDS011;354;42.694;23.336;2023-09-18T00:48:03;33.50;;;30.13;;
739;SDS011;354;42.694;23.336;2023-09-18T00:50:28;32.17;;;29.07;;
739;SDS011;354;42.694;23.336;2023-09-18T00:52:54;29.43;;;26.53;;
739;SDS011;354;42.694;23.336;2023-09-18T00:55:19;29.90;;;26.77;;
739;SDS011;354;42.694;23.336;2023-09-18T00:57:45;29.93;;;27.03;;
739;SDS011;354;42.694;23.336;2023-09-18T01:00:11;27.87;;;25.03;;
739;SDS011;354;42.694;23.336;2023-09-18T01:02:40;25.83;;;23.17;;
739;SDS011;354;42.694;23.336;2023-09-18T01:05:06;25.40;;;22.97;;
739;SDS011;354;42.694;23.336;2023-09-18T01:07:31;26.37;;;23.60;;
739;SDS011;354;42.694;23.336;2023-09-18T01:09:57;25.87;;;23.27;;
739;SDS011;354;42.694;23.336;2023-09-18T01:12:32;23.43;;;21.10;;
739;SDS011;354;42.694;23.336;2023-09-18T01:15:12;23.67;;;21.57;;
739;SDS011;354;42.694;23.336;2023-09-18T01:17:42;23.40;;;21.20;;
739;SDS011;354;42.694;23.336;2023-09-18T01:20:09;23.90;;;21.60;;
739;SDS011;354;42.694;23.336;2023-09-18T01:22:35;22.57;;;20.37;;
739;SDS011;354;42.694;23.336;2023-09-18T01:25:00;24.03;;;21.83;;
739;SDS011;354;42.694;23.336;2023-09-18T01:27:26;23.13;;;21.13;;
739;SDS011;354;42.694;23.336;2023-09-18T01:29:51;22.80;;;20.53;;
739;SDS011;354;42.694;23.336;2023-09-18T01:32:18;22.10;;;20.00;;
739;SDS011;354;42.694;23.336;2023-09-18T01:34:48;21.97;;;19.90;;
739;SDS011;354;42.694;23.336;2023-09-18T01:37:15;22.77;;;20.67;;
739;SDS011;354;42.694;23.336;2023-09-18T01:39:43;22.43;;;20.33;;
739;SDS011;354;42.694;23.336;2023-09-18T01:42:11;21.73;;;19.73;;
739;SDS011;354;42.694;23.336;2023-09-18T01:44:37;22.70;;;20.50;;
739;SDS011;354;42.694;23.336;2023-09-18T01:47:09;21.83;;;19.73;;
739;SDS011;354;42.694;23.336;2023-09-18T01:49:38;21.83;;;19.70;;
739;SDS011;354;42.694;23.336;2023-09-18T01:52:04;22.13;;;19.93;;
739;SDS011;354;42.694;23.336;2023-09-18T01:54:32;22.07;;;20.10;;
739;SDS011;354;42.694;23.336;2023-09-18T01:56:59;22.30;;;20.30;;
739;SDS011;354;42.694;23.336;2023-09-18T01:59:24;24.37;;;20.57;;
739;SDS011;354;42.694;23.336;2023-09-18T02:01:51;22.20;;;20.17;;
739;SDS011;354;42.694;23.336;2023-09-18T02:04:17;22.60;;;20.30;;
739;SDS011;354;42.694;23.336;2023-09-18T02:06:43;23.20;;;20.70;;
739;SDS011;354;42.694;23.336;2023-09-18T02:09:09;22.67;;;20.77;;
739;SDS011;354;42.694;23.336;2023-09-18T02:11:39;23.67;;;21.47;;
739;SDS011;354;42.694;23.336;2023-09-18T02:14:06;24.37;;;21.90;;
739;SDS011;354;42.694;23.336;2023-09-18T02:16:33;23.40;;;21.20;;
739;SDS011;354;42.694;23.336;2023-09-18T02:18:59;24.77;;;22.47;;
739;SDS011;354;42.694;23.336;2023-09-18T02:21:25;24.90;;;22.40;;
739;SDS011;354;42.694;23.336;2023-09-18T02:23:51;24.23;;;21.93;;
739;SDS011;354;42.694;23.336;2023-09-18T02:26:18;28.53;;;25.73;;
739;SDS011;354;42.694;23.336;2023-09-18T02:28:44;25.57;;;23.27;;
739;SDS011;354;42.694;23.336;2023-09-18T02:31:10;24.83;;;22.60;;
739;SDS011;354;42.694;23.336;2023-09-18T02:33:36;24.40;;;21.93;;
739;SDS011;354;42.694;23.336;2023-09-18T02:36:02;23.83;;;21.43;;
739;SDS011;354;42.694;23.336;2023-09-18T02:38:28;23.33;;;21.23;;
739;SDS011;354;42.694;23.336;2023-09-18T02:40:55;22.47;;;20.27;;
739;SDS011;354;42.694;23.336;2023-09-18T02:43:21;20.40;;;18.60;;
739;SDS011;354;42.694;23.336;2023-09-18T02:45:50;20.53;;;18.77;;
739;SDS011;354;42.694;23.336;2023-09-18T02:48:16;20.70;;;18.80;;
739;SDS011;354;42.694;23.336;2023-09-18T02:50:42;20.57;;;18.57;;
739;SDS011;354;42.694;23.336;2023-09-18T02:53:07;19.43;;;17.73;;
739;SDS011;354;42.694;23.336;2023-09-18T02:55:42;20.53;;;18.00;;
739;SDS011;354;42.694;23.336;2023-09-18T02:58:08;19.10;;;17.30;;
739;SDS011;354;42.694;23.336;2023-09-18T03:00:35;19.97;;;17.97;;
739;SDS011;354;42.694;23.336;2023-09-18T03:03:05;18.23;;;16.53;;
739;SDS011;354;42.694;23.336;2023-09-18T03:05:31;19.97;;;18.07;;
739;SDS011;354;42.694;23.336;2023-09-18T03:07:56;20.60;;;18.70;;
739;SDS011;354;42.694;23.336;2023-09-18T03:10:22;20.17;;;18.40;;
739;SDS011;354;42.694;23.336;2023-09-18T03:12:47;21.60;;;19.70;;
739;SDS011;354;42.694;23.336;2023-09-18T03:15:13;21.33;;;19.17;;
739;SDS011;354;42.694;23.336;2023-09-18T03:17:38;20.30;;;18.40;;
739;SDS011;354;42.694;23.336;2023-09-18T03:20:06;21.23;;;19.33;;
739;SDS011;354;42.694;23.336;2023-09-18T03:22:33;22.93;;;20.80;;
739;SDS011;354;42.694;23.336;2023-09-18T03:24:58;22.23;;;20.13;;
739;SDS011;354;42.694;23.336;2023-09-18T03:27:24;23.93;;;21.70;;
739;SDS011;354;42.694;23.336;2023-09-18T03:29:53;23.33;;;21.03;;
739;SDS011;354;42.694;23.336;2023-09-18T03:32:22;23.30;;;21.03;;
739;SDS011;354;42.694;23.336;2023-09-18T03:34:50;23.67;;;21.27;;
739;SDS011;354;42.694;23.336;2023-09-18T03:37:16;23.17;;;21.10;;
739;SDS011;354;42.694;23.336;2023-09-18T03:39:41;25.73;;;23.23;;
739;SDS011;354;42.694;23.336;2023-09-18T03:42:06;24.73;;;22.23;;
739;SDS011;354;42.694;23.336;2023-09-18T03:44:32;26.30;;;23.40;;
739;SDS011;354;42.694;23.336;2023-09-18T03:46:57;24.70;;;22.20;;
739;SDS011;354;42.694;23.336;2023-09-18T03:49:22;26.97;;;24.27;;
739;SDS011;354;42.694;23.336;2023-09-18T03:51:48;26.80;;;24.27;;
739;SDS011;354;42.694;23.336;2023-09-18T03:54:13;27.03;;;24.27;;
739;SDS011;354;42.694;23.336;2023-09-18T03:56:39;26.97;;;24.27;;
739;SDS011;354;42.694;23.336;2023-09-18T03:59:04;29.23;;;26.10;;
739;SDS011;354;42.694;23.336;2023-09-18T04:01:30;28.37;;;25.57;;
739;SDS011;354;42.694;23.336;2023-09-18T04:03:55;27.97;;;25.37;;
739;SDS011;354;42.694;23.336;2023-09-18T04:06:21;30.53;;;26.47;;
739;SDS011;354;42.694;23.336;2023-09-18T04:08:49;27.80;;;24.83;;
739;SDS011;354;42.694;23.336;2023-09-18T04:11:14;31.17;;;28.03;;
739;SDS011;354;42.694;23.336;2023-09-18T04:13:40;28.87;;;25.77;;
739;SDS011;354;42.694;23.336;2023-09-18T04:16:05;33.17;;;29.77;;
739;SDS011;354;42.694;23.336;2023-09-18T04:18:30;29.27;;;26.17;;
739;SDS011;354;42.694;23.336;2023-09-18T04:20:56;29.97;;;25.47;;
739;SDS011;354;42.694;23.336;2023-09-18T04:23:26;26.53;;;23.93;;
739;SDS011;354;42.694;23.336;2023-09-18T04:25:52;26.47;;;23.70;;
739;SDS011;354;42.694;23.336;2023-09-18T04:28:19;27.20;;;24.43;;
739;SDS011;354;42.694;23.336;2023-09-18T04:30:46;28.43;;;24.83;;
739;SDS011;354;42.694;23.336;2023-09-18T04:33:14;27.57;;;24.63;;
739;SDS011;354;42.694;23.336;2023-09-18T04:35:40;28.23;;;25.40;;
739;SDS011;354;42.694;23.336;2023-09-18T04:38:06;28.60;;;25.63;;
739;SDS011;354;42.694;23.336;2023-09-18T04:40:33;23.40;;;21.10;;
739;SDS011;354;42.694;23.336;2023-09-18T04:42:59;26.07;;;21.63;;
739;SDS011;354;42.694;23.336;2023-09-18T04:45:25;23.00;;;20.80;;
739;SDS011;354;42.694;23.336;2023-09-18T04:47:51;24.27;;;21.87;;
739;SDS011;354;42.694;23.336;2023-09-18T04:50:17;24.57;;;21.57;;
739;SDS011;354;42.694;23.336;2023-09-18T04:52:42;24.70;;;22.20;;
739;SDS011;354;42.694;23.336;2023-09-18T04:55:08;24.90;;;22.30;;
739;SDS011;354;42.694;23.336;2023-09-18T04:57:34;27.03;;;22.50;;
739;SDS011;354;42.694;23.336;2023-09-18T05:00:00;25.17;;;22.03;;
739;SDS011;354;42.694;23.336;2023-09-18T05:02:26;25.87;;;23.23;;
739;SDS011;354;42.694;23.336;2023-09-18T05:04:51;25.33;;;22.13;;
739;SDS011;354;42.694;23.336;2023-09-18T05:07:17;35.87;;;31.67;;
739;SDS011;354;42.694;23.336;2023-09-18T05:09:42;33.57;;;29.47;;
739;SDS011;354;42.694;23.336;2023-09-18T05:12:08;28.40;;;22.73;;
739;SDS011;354;42.694;23.336;2023-09-18T05:14:39;26.00;;;22.40;;
739;SDS011;354;42.694;23.336;2023-09-18T05:17:05;27.10;;;24.20;;
739;SDS011;354;42.694;23.336;2023-09-18T05:19:31;23.55;;;20.98;;
739;SDS011;354;42.694;23.336;2023-09-18T05:21:56;21.90;;;19.35;;
739;SDS011;354;42.694;23.336;2023-09-18T05:24:22;18.67;;;16.98;;
739;SDS011;354;42.694;23.336;2023-09-18T05:26:52;20.45;;;18.45;;
739;SDS011;354;42.694;23.336;2023-09-18T05:29:18;20.23;;;18.33;;
739;SDS011;354;42.694;23.336;2023-09-18T05:31:43;19.23;;;17.23;;
739;SDS011;354;42.694;23.336;2023-09-18T05:34:09;19.83;;;18.02;;
739;SDS011;354;42.694;23.336;2023-09-18T05:36:34;20.08;;;17.65;;
739;SDS011;354;42.694;23.336;2023-09-18T05:39:00;19.15;;;17.30;;
739;SDS011;354;42.694;23.336;2023-09-18T05:41:25;21.95;;;19.75;;
739;SDS011;354;42.694;23.336;2023-09-18T05:43:53;25.65;;;23.08;;
739;SDS011;354;42.694;23.336;2023-09-18T05:46:19;21.35;;;19.25;;
739;SDS011;354;42.694;23.336;2023-09-18T05:48:44;20.95;;;18.83;;
739;SDS011;354;42.694;23.336;2023-09-18T05:51:09;20.48;;;18.42;;
739;SDS011;354;42.694;23.336;2023-09-18T05:53:35;20.90;;;19.00;;
739;SDS011;354;42.694;23.336;2023-09-18T05:56:00;21.00;;;18.80;;
739;SDS011;354;42.694;23.336;2023-09-18T05:58:29;23.48;;;20.98;;
739;SDS011;354;42.694;23.336;2023-09-18T06:00:57;22.30;;;19.63;;
739;SDS011;354;42.694;23.336;2023-09-18T06:03:25;25.08;;;22.40;;
739;SDS011;354;42.694;23.336;2023-09-18T06:05:51;25.25;;;20.70;;
739;SDS011;354;42.694;23.336;2023-09-18T06:08:17;21.88;;;19.63;;
739;SDS011;354;42.694;23.336;2023-09-18T06:10:43;21.98;;;19.63;;
739;SDS011;354;42.694;23.336;2023-09-18T06:13:09;22.50;;;20.27;;
739;SDS011;354;42.694;23.336;2023-09-18T06:15:35;21.33;;;19.15;;
739;SDS011;354;42.694;23.336;2023-09-18T06:18:00;33.13;;;29.80;;
739;SDS011;354;42.694;23.336;2023-09-18T06:20:26;20.67;;;18.60;;
739;SDS011;354;42.694;23.336;2023-09-18T06:22:52;22.02;;;18.58;;
739;SDS011;354;42.694;23.336;2023-09-18T06:25:17;20.85;;;19.02;;
739;SDS011;354;42.694;23.336;2023-09-18T06:27:43;27.60;;;24.33;;
739;SDS011;354;42.694;23.336;2023-09-18T06:30:08;18.20;;;16.65;;
739;SDS011;354;42.694;23.336;2023-09-18T06:32:34;20.83;;;18.92;;
739;SDS011;354;42.694;23.336;2023-09-18T06:35:02;21.10;;;18.95;;
739;SDS011;354;42.694;23.336;2023-09-18T06:37:27;20.92;;;18.83;;
739;SDS011;354;42.694;23.336;2023-09-18T06:39:53;24.15;;;21.70;;
739;SDS011;354;42.694;23.336;2023-09-18T06:42:18;21.15;;;19.15;;
739;SDS011;354;42.694;23.336;2023-09-18T06:44:44;21.77;;;19.55;;
739;SDS011;354;42.694;23.336;2023-09-18T06:47:10;21.98;;;19.88;;
739;SDS011;354;42.694;23.336;2023-09-18T06:49:35;20.65;;;18.42;;
739;SDS011;354;42.694;23.336;2023-09-18T06:52:01;21.65;;;19.52;;
739;SDS011;354;42.694;23.336;2023-09-18T06:54:27;23.50;;;19.75;;
739;SDS011;354;42.694;23.336;2023-09-18T06:56:52;24.90;;;20.10;;
739;SDS011;354;42.694;23.336;2023-09-18T06:59:18;22.30;;;19.92;;
739;SDS011;354;42.694;23.336;2023-09-18T07:01:43;22.25;;;20.10;;
739;SDS011;354;42.694;23.336;2023-09-18T07:04:09;21.85;;;19.55;;
739;SDS011;354;42.694;23.336;2023-09-18T07:06:34;20.08;;;18.17;;
739;SDS011;354;42.694;23.336;2023-09-18T07:09:00;21.15;;;19.13;;
739;SDS011;354;42.694;23.336;2023-09-18T07:11:25;23.15;;;20.90;;
739;SDS011;354;42.694;23.336;2023-09-18T07:13:51;21.85;;;19.55;;
739;SDS011;354;42.694;23.336;2023-09-18T07:16:16;22.05;;;19.85;;
739;SDS011;354;42.694;23.336;2023-09-18T07:18:42;21.80;;;19.75;;
739;SDS011;354;42.694;23.336;2023-09-18T07:21:08;23.15;;;21.05;;
739;SDS011;354;42.694;23.336;2023-09-18T07:23:33;23.45;;;21.15;;
739;SDS011;354;42.694;23.336;2023-09-18T07:26:02;23.70;;;21.35;;
739;SDS011;354;42.694;23.336;2023-09-18T07:28:27;25.58;;;21.80;;
739;SDS011;354;42.694;23.336;2023-09-18T07:30:53;29.58;;;22.30;;
739;SDS011;354;42.694;23.336;2023-09-18T07:33:18;20.58;;;18.65;;
739;SDS011;354;42.694;23.336;2023-09-18T07:35:48;23.02;;;20.75;;
739;SDS011;354;42.694;23.336;2023-09-18T07:38:16;21.27;;;19.20;;
739;SDS011;354;42.694;23.336;2023-09-18T07:40:44;21.65;;;19.35;;
739;SDS011;354;42.694;23.336;2023-09-18T07:43:09;22.15;;;20.05;;
739;SDS011;354;42.694;23.336;2023-09-18T07:45:34;22.17;;;20.17;;
739;SDS011;354;42.694;23.336;2023-09-18T07:48:00;22.58;;;20.48;;
739;SDS011;354;42.694;23.336;2023-09-18T07:50:25;20.83;;;18.88;;
739;SDS011;354;42.694;23.336;2023-09-18T07:52:52;23.08;;;20.88;;
739;SDS011;354;42.694;23.336;2023-09-18T07:55:17;21.63;;;19.58;;
739;SDS011;354;42.694;23.336;2023-09-18T07:57:42;20.35;;;18.50;;
739;SDS011;354;42.694;23.336;2023-09-18T08:00:10;20.50;;;18.63;;
739;SDS011;354;42.694;23.336;2023-09-18T08:02:41;20.98;;;18.95;;
739;SDS011;354;42.694;23.336;2023-09-18T08:05:07;23.52;;;20.85;;
739;SDS011;354;42.694;23.336;2023-09-18T08:07:33;20.38;;;18.48;;
739;SDS011;354;42.694;23.336;2023-09-18T08:10:00;22.17;;;19.85;;
739;SDS011;354;42.694;23.336;2023-09-18T08:12:29;20.98;;;19.17;;
739;SDS011;354;42.694;23.336;2023-09-18T08:14:55;20.90;;;18.90;;
739;SDS011;354;42.694;23.336;2023-09-18T08:17:23;20.73;;;18.80;;
739;SDS011;354;42.694;23.336;2023-09-18T08:19:52;19.60;;;17.45;;
739;SDS011;354;42.694;23.336;2023-09-18T08:22:18;18.58;;;16.88;;
739;SDS011;354;42.694;23.336;2023-09-18T08:24:46;19.70;;;18.00;;
739;SDS011;354;42.694;23.336;2023-09-18T08:27:13;19.35;;;17.58;;
739;SDS011;354;42.694;23.336;2023-09-18T08:29:42;21.85;;;19.65;;
739;SDS011;354;42.694;23.336;2023-09-18T08:32:10;20.65;;;18.85;;
739;SDS011;354;42.694;23.336;2023-09-18T08:34:36;20.05;;;18.13;;
739;SDS011;354;42.694;23.336;2023-09-18T08:37:02;19.20;;;17.30;;
739;SDS011;354;42.694;23.336;2023-09-18T08:39:28;18.65;;;17.05;;
739;SDS011;354;42.694;23.336;2023-09-18T08:41:55;18.95;;;17.17;;
739;SDS011;354;42.694;23.336;2023-09-18T08:44:24;19.70;;;18.00;;
739;SDS011;354;42.694;23.336;2023-09-18T08:46:52;19.55;;;17.73;;
739;SDS011;354;42.694;23.336;2023-09-18T08:49:18;19.92;;;18.05;;
739;SDS011;354;42.694;23.336;2023-09-18T08:51:45;20.35;;;18.38;;
739;SDS011;354;42.694;23.336;2023-09-18T08:54:11;27.13;;;24.20;;
739;SDS011;354;42.694;23.336;2023-09-18T08:56:37;22.45;;;20.13;;
739;SDS011;354;42.694;23.336;2023-09-18T08:59:03;22.02;;;19.90;;
739;SDS011;354;42.694;23.336;2023-09-18T09:01:28;20.77;;;18.80;;
739;SDS011;354;42.694;23.336;2023-09-18T09:03:54;19.00;;;17.20;;
739;SDS011;354;42.694;23.336;2023-09-18T09:06:20;19.05;;;17.25;;
739;SDS011;354;42.694;23.336;2023-09-18T09:08:45;20.88;;;18.85;;
739;SDS011;354;42.694;23.336;2023-09-18T09:11:11;17.90;;;16.00;;
739;SDS011;354;42.694;23.336;2023-09-18T09:13:36;26.85;;;24.38;;
739;SDS011;354;42.694;23.336;2023-09-18T09:16:01;17.20;;;15.60;;
739;SDS011;354;42.694;23.336;2023-09-18T09:18:28;18.48;;;16.77;;
739;SDS011;354;42.694;23.336;2023-09-18T09:20:57;29.25;;;26.00;;
739;SDS011;354;42.694;23.336;2023-09-18T09:23:28;20.33;;;18.10;;
739;SDS011;354;42.694;23.336;2023-09-18T09:26:12;19.40;;;17.45;;
739;SDS011;354;42.694;23.336;2023-09-18T09:28:38;19.17;;;17.30;;
739;SDS011;354;42.694;23.336;2023-09-18T09:31:04;19.40;;;17.50;;
739;SDS011;354;42.694;23.336;2023-09-18T09:33:30;16.45;;;15.13;;
739;SDS011;354;42.694;23.336;2023-09-18T09:35:56;15.85;;;14.55;;
739;SDS011;354;42.694;23.336;2023-09-18T09:38:29;15.35;;;13.98;;
739;SDS011;354;42.694;23.336;2023-09-18T09:41:00;16.17;;;14.80;;
739;SDS011;354;42.694;23.336;2023-09-18T09:43:26;15.98;;;14.57;;
739;SDS011;354;42.694;23.336;2023-09-18T09:46:00;18.10;;;16.30;;
739;SDS011;354;42.694;23.336;2023-09-18T09:48:26;16.08;;;14.57;;
739;SDS011;354;42.694;23.336;2023-09-18T09:50:52;16.35;;;14.70;;
739;SDS011;354;42.694;23.336;2023-09-18T09:56:13;17.60;;;16.00;;
739;SDS011;354;42.694;23.336;2023-09-18T09:58:39;14.15;;;13.05;;
739;SDS011;354;42.694;23.336;2023-09-18T10:01:09;14.95;;;13.63;;
739;SDS011;354;42.694;23.336;2023-09-18T10:03:42;15.55;;;14.05;;
739;SDS011;354;42.694;23.336;2023-09-18T10:06:08;16.38;;;15.02;;
739;SDS011;354;42.694;23.336;2023-09-18T10:08:35;17.23;;;15.63;;
739;SDS011;354;42.694;23.336;2023-09-18T10:11:07;13.80;;;12.70;;
739;SDS011;354;42.694;23.336;2023-09-18T10:13:40;15.32;;;14.02;;
739;SDS011;354;42.694;23.336;2023-09-18T10:16:11;14.75;;;13.55;;
739;SDS011;354;42.694;23.336;2023-09-18T10:18:45;14.55;;;13.32;;
739;SDS011;354;42.694;23.336;2023-09-18T10:26:35;12.85;;;11.85;;
739;SDS011;354;42.694;23.336;2023-09-18T10:29:12;11.68;;;10.77;;
739;SDS011;354;42.694;23.336;2023-09-18T10:31:39;17.30;;;15.82;;
739;SDS011;354;42.694;23.336;2023-09-18T10:34:09;13.20;;;11.98;;
739;SDS011;354;42.694;23.336;2023-09-18T10:36:37;14.02;;;12.73;;
739;SDS011;354;42.694;23.336;2023-09-18T10:39:06;13.88;;;12.77;;
739;SDS011;354;42.694;23.336;2023-09-18T10:41:35;13.63;;;12.43;;
739;SDS011;354;42.694;23.336;2023-09-18T10:44:02;14.80;;;13.50;;
739;SDS011;354;42.694;23.336;2023-09-18T10:46:29;12.32;;;11.30;;
739;SDS011;354;42.694;23.336;2023-09-18T10:48:55;12.10;;;11.05;;
739;SDS011;354;42.694;23.336;2023-09-18T10:51:21;14.50;;;13.23;;
739;SDS011;354;42.694;23.336;2023-09-18T10:53:48;12.18;;;10.85;;
739;SDS011;354;42.694;23.336;2023-09-18T10:56:15;11.73;;;10.82;;
739;SDS011;354;42.694;23.336;2023-09-18T10:58:41;12.68;;;11.40;;
739;SDS011;354;42.694;23.336;2023-09-18T11:01:09;12.80;;;11.82;;
739;SDS011;354;42.694;23.336;2023-09-18T11:03:37;12.93;;;11.70;;
739;SDS011;354;42.694;23.336;2023-09-18T11:06:04;13.45;;;12.25;;
739;SDS011;354;42.694;23.336;2023-09-18T11:08:48;12.52;;;11.63;;
739;SDS011;354;42.694;23.336;2023-09-18T11:11:17;13.25;;;11.98;;
739;SDS011;354;42.694;23.336;2023-09-18T11:13:48;11.35;;;10.55;;
739;SDS011;354;42.694;23.336;2023-09-18T11:16:33;11.00;;;10.20;;
739;SDS011;354;42.694;23.336;2023-09-18T11:21:29;12.38;;;11.43;;
739;SDS011;354;42.694;23.336;2023-09-18T11:24:00;11.45;;;10.55;;
739;SDS011;354;42.694;23.336;2023-09-18T11:26:29;12.02;;;10.93;;
739;SDS011;354;42.694;23.336;2023-09-18T11:28:58;10.73;;;9.90;;
739;SDS011;354;42.694;23.336;2023-09-18T11:31:41;12.02;;;11.10;;
739;SDS011;354;42.694;23.336;2023-09-18T11:34:11;13.07;;;11.98;;
739;SDS011;354;42.694;23.336;2023-09-18T11:36:38;11.10;;;10.40;;
739;SDS011;354;42.694;23.336;2023-09-18T11:39:03;11.15;;;10.32;;
739;SDS011;354;42.694;23.336;2023-09-18T11:41:30;10.60;;;9.80;;
739;SDS011;354;42.694;23.336;2023-09-18T11:46:38;11.55;;;10.50;;
739;SDS011;354;42.694;23.336;2023-09-18T11:49:06;12.02;;;11.02;;
739;SDS011;354;42.694;23.336;2023-09-18T11:51:35;11.35;;;10.20;;
739;SDS011;354;42.694;23.336;2023-09-18T11:54:01;12.48;;;11.38;;
739;SDS011;354;42.694;23.336;2023-09-18T11:56:28;11.20;;;10.27;;
739;SDS011;354;42.694;23.336;2023-09-18T11:58:54;11.45;;;10.50;;
739;SDS011;354;42.694;23.336;2023-09-18T12:01:20;11.60;;;10.75;;
739;SDS011;354;42.694;23.336;2023-09-18T12:04:21;11.57;;;10.68;;
739;SDS011;354;42.694;23.336;2023-09-18T12:06:39;12.90;;;11.45;;
739;SDS011;354;42.694;23.336;2023-09-18T12:09:06;10.95;;;10.05;;
739;SDS011;354;42.694;23.336;2023-09-18T12:11:32;11.10;;;10.38;;
739;SDS011;354;42.694;23.336;2023-09-18T12:14:00;11.57;;;10.77;;
739;SDS011;354;42.694;23.336;2023-09-18T12:16:27;11.07;;;10.18;;
739;SDS011;354;42.694;23.336;2023-09-18T12:18:53;12.23;;;11.32;;
739;SDS011;354;42.694;23.336;2023-09-18T12:21:18;10.20;;;9.20;;
739;SDS011;354;42.694;23.336;2023-09-18T12:23:44;11.20;;;10.07;;
739;SDS011;354;42.694;23.336;2023-09-18T12:26:14;11.73;;;10.82;;
739;SDS011;354;42.694;23.336;2023-09-18T12:28:41;10.85;;;9.95;;
739;SDS011;354;42.694;23.336;2023-09-18T12:31:11;11.20;;;10.20;;
739;SDS011;354;42.694;23.336;2023-09-18T12:33:41;10.75;;;10.02;;
739;SDS011;354;42.694;23.336;2023-09-18T12:36:18;10.90;;;10.02;;
739;SDS011;354;42.694;23.336;2023-09-18T12:38:54;11.40;;;10.50;;
739;SDS011;354;42.694;23.336;2023-09-18T12:41:20;10.48;;;9.77;;
739;SDS011;354;42.694;23.336;2023-09-18T12:43:46;12.07;;;10.88;;
739;SDS011;354;42.694;23.336;2023-09-18T12:46:11;10.35;;;9.50;;
739;SDS011;354;42.694;23.336;2023-09-18T12:48:38;11.45;;;10.55;;
739;SDS011;354;42.694;23.336;2023-09-18T12:51:10;10.50;;;9.80;;
739;SDS011;354;42.694;23.336;2023-09-18T12:53:36;11.10;;;9.82;;
739;SDS011;354;42.694;23.336;2023-09-18T12:58:31;10.82;;;10.02;;
739;SDS011;354;42.694;23.336;2023-09-18T13:00:57;11.52;;;10.57;;
739;SDS011;354;42.694;23.336;2023-09-18T13:03:22;11.27;;;10.38;;
739;SDS011;354;42.694;23.336;2023-09-18T13:05:48;11.77;;;10.90;;
739;SDS011;354;42.694;23.336;2023-09-18T13:08:14;10.95;;;10.05;;
739;SDS011;354;42.694;23.336;2023-09-18T13:10:43;11.68;;;10.68;;
739;SDS011;354;42.694;23.336;2023-09-18T13:13:17;11.60;;;10.40;;
739;SDS011;354;42.694;23.336;2023-09-18T13:15:46;11.48;;;10.52;;
739;SDS011;354;42.694;23.336;2023-09-18T13:18:13;12.05;;;11.13;;
739;SDS011;354;42.694;23.336;2023-09-18T13:20:39;11.10;;;10.30;;
739;SDS011;354;42.694;23.336;2023-09-18T13:23:06;11.15;;;9.98;;
739;SDS011;354;42.694;23.336;2023-09-18T13:27:59;11.35;;;10.52;;
739;SDS011;354;42.694;23.336;2023-09-18T13:30:25;10.57;;;9.82;;
739;SDS011;354;42.694;23.336;2023-09-18T13:33:00;11.60;;;10.70;;
739;SDS011;354;42.694;23.336;2023-09-18T13:35:27;11.55;;;10.75;;
739;SDS011;354;42.694;23.336;2023-09-18T13:37:53;11.25;;;10.43;;
739;SDS011;354;42.694;23.336;2023-09-18T13:40:18;10.68;;;9.68;;
739;SDS011;354;42.694;23.336;2023-09-18T13:42:43;10.32;;;9.52;;
739;SDS011;354;42.694;23.336;2023-09-18T13:45:09;11.10;;;10.18;;
739;SDS011;354;42.694;23.336;2023-09-18T13:47:35;10.60;;;9.27;;
739;SDS011;354;42.694;23.336;2023-09-18T13:50:02;11.27;;;9.98;;
739;SDS011;354;42.694;23.336;2023-09-18T13:52:30;10.85;;;10.05;;
739;SDS011;354;42.694;23.336;2023-09-18T13:54:57;12.20;;;11.30;;
739;SDS011;354;42.694;23.336;2023-09-18T13:57:23;13.60;;;12.43;;
739;SDS011;354;42.694;23.336;2023-09-18T13:59:49;9.50;;;8.70;;
739;SDS011;354;42.694;23.336;2023-09-18T14:02:15;13.63;;;12.52;;
739;SDS011;354;42.694;23.336;2023-09-18T14:04:41;11.25;;;10.40;;
739;SDS011;354;42.694;23.336;2023-09-18T14:07:07;11.93;;;10.80;;
739;SDS011;354;42.694;23.336;2023-09-18T14:09:33;11.27;;;9.95;;
739;SDS011;354;42.694;23.336;2023-09-18T14:11:59;9.25;;;8.52;;
739;SDS011;354;42.694;23.336;2023-09-18T14:14:25;10.77;;;9.88;;
739;SDS011;354;42.694;23.336;2023-09-18T14:16:51;10.00;;;9.15;;
739;SDS011;354;42.694;23.336;2023-09-18T14:19:16;10.45;;;9.55;;
739;SDS011;354;42.694;23.336;2023-09-18T14:21:42;9.02;;;8.18;;
739;SDS011;354;42.694;23.336;2023-09-18T14:24:08;10.45;;;9.45;;
739;SDS011;354;42.694;23.336;2023-09-18T14:26:35;9.43;;;8.63;;
739;SDS011;354;42.694;23.336;2023-09-18T14:29:07;10.55;;;9.70;;
739;SDS011;354;42.694;23.336;2023-09-18T14:31:33;9.40;;;8.70;;
739;SDS011;354;42.694;23.336;2023-09-18T14:33:58;10.02;;;9.32;;
739;SDS011;354;42.694;23.336;2023-09-18T14:36:25;10.15;;;9.18;;
739;SDS011;354;42.694;23.336;2023-09-18T14:38:50;10.60;;;9.90;;
739;SDS011;354;42.694;23.336;2023-09-18T14:41:15;10.32;;;9.52;;
739;SDS011;354;42.694;23.336;2023-09-18T14:43:42;10.25;;;9.45;;
739;SDS011;354;42.694;23.336;2023-09-18T14:46:08;9.73;;;8.93;;
739;SDS011;354;42.694;23.336;2023-09-18T14:48:34;10.93;;;9.93;;
739;SDS011;354;42.694;23.336;2023-09-18T14:50:59;10.80;;;10.00;;
739;SDS011;354;42.694;23.336;2023-09-18T14:53:25;10.68;;;9.88;;
739;SDS011;354;42.694;23.336;2023-09-18T14:55:51;10.68;;;9.73;;
739;SDS011;354;42.694;23.336;2023-09-18T14:58:16;10.43;;;9.63;;
739;SDS011;354;42.694;23.336;2023-09-18T15:00:43;12.77;;;10.75;;
739;SDS011;354;42.694;23.336;2023-09-18T15:03:09;11.82;;;10.93;;
739;SDS011;354;42.694;23.336;2023-09-18T15:05:34;11.23;;;10.43;;
739;SDS011;354;42.694;23.336;2023-09-18T15:07:59;10.25;;;9.38;;
739;SDS011;354;42.694;23.336;2023-09-18T15:10:25;10.77;;;9.88;;
739;SDS011;354;42.694;23.336;2023-09-18T15:12:50;9.45;;;8.70;;
739;SDS011;354;42.694;23.336;2023-09-18T15:15:16;10.90;;;10.00;;
739;SDS011;354;42.694;23.336;2023-09-18T15:17:41;10.27;;;9.57;;
739;SDS011;354;42.694;23.336;2023-09-18T15:20:07;10.30;;;9.43;;